Time;durP1;ratioP1;P1;durP2;ratioP2;P2;SDS_P1;SDS_P2;PMS_P1;PMS_P2;Temp;Humidity;BMP_temperature;BMP_pressure;BME280_temperature;BME280_humidity;BME280_pressure;Samples;Min_cycle;Max_cycle;Signal;HPM_P1;HPM_P2
2022/06/24 00:01:29;;;;;;;3.40;2.37;;;20.70;99.90;;;;;;4889556;29;20311;-49
2022/06/24 00:03:57;;;;;;;2.90;2.60;;;20.70;99.90;;;;;;4890493;29;20243;-51
2022/06/24 00:06:41;;;;;;;2.80;2.53;;;20.70;99.90;;;;;;4889870;29;20238;-50
2022/06/24 00:09:12;;;;;;;5.53;2.77;;;20.70;99.90;;;;;;4888050;29;20232;-51
2022/06/24 00:11:41;;;;;;;3.47;2.70;;;20.60;99.90;;;;;;4889897;29;20708;-50
2022/06/24 00:14:11;;;;;;;3.03;2.70;;;20.60;99.90;;;;;;4889999;29;20236;-51
2022/06/24 00:16:56;;;;;;;4.43;2.60;;;20.60;99.90;;;;;;4889754;29;20743;-51
2022/06/24 00:19:26;;;;;;;3.10;2.80;;;20.60;99.90;;;;;;4888515;29;20613;-51
2022/06/24 00:21:59;;;;;;;3.40;2.60;;;20.50;99.90;;;;;;4889780;29;20236;-51
2022/06/24 00:24:29;;;;;;;2.90;2.70;;;20.60;99.90;;;;;;4889426;29;20301;-49
2022/06/24 00:26:57;;;;;;;3.70;2.57;;;20.50;99.90;;;;;;4889638;29;20743;-53
2022/06/24 00:29:27;;;;;;;3.33;2.60;;;20.50;99.90;;;;;;4887481;29;20261;-54
2022/06/24 00:32:03;;;;;;;4.43;2.70;;;20.50;99.90;;;;;;4889194;29;20247;-55
2022/06/24 00:34:32;;;;;;;3.73;2.60;;;20.50;99.90;;;;;;4888990;29;20233;-54
2022/06/24 00:37:26;;;;;;;3.53;2.87;;;20.50;99.90;;;;;;4889367;29;20569;-53
2022/06/24 00:39:59;;;;;;;2.90;2.70;;;20.40;99.90;;;;;;4888422;29;20390;-53
2022/06/24 00:42:27;;;;;;;5.47;3.20;;;20.40;99.90;;;;;;4888181;29;20230;-54
2022/06/24 00:45:14;;;;;;;4.07;2.60;;;20.40;99.90;;;;;;4888678;29;20229;-53
2022/06/24 00:47:43;;;;;;;2.87;2.57;;;20.30;99.90;;;;;;4888943;29;20237;-53
2022/06/24 00:50:21;;;;;;;3.57;2.57;;;20.30;99.90;;;;;;4888045;29;20239;-54
2022/06/24 00:52:50;;;;;;;4.27;2.47;;;20.30;99.90;;;;;;4889234;29;20718;-54
2022/06/24 00:55:21;;;;;;;2.57;2.23;;;20.20;99.90;;;;;;4888312;29;20237;-53
2022/06/24 00:57:49;;;;;;;4.00;2.63;;;20.20;99.90;;;;;;4889254;29;20631;-53
2022/06/24 01:00:18;;;;;;;5.17;2.73;;;20.20;99.90;;;;;;4887711;29;20237;-52
2022/06/24 01:02:48;;;;;;;5.90;2.60;;;20.20;99.90;;;;;;4888343;29;20250;-52
2022/06/24 01:05:18;;;;;;;3.10;2.53;;;20.20;99.90;;;;;;4888728;29;20260;-54
2022/06/24 01:07:47;;;;;;;4.97;2.87;;;20.20;99.90;;;;;;4888152;29;20247;-53
2022/06/24 01:10:15;;;;;;;3.27;2.60;;;20.20;99.90;;;;;;4887371;29;20271;-53
2022/06/24 01:12:44;;;;;;;2.87;2.67;;;20.20;99.90;;;;;;4888950;29;20240;-53
2022/06/24 01:15:13;;;;;;;2.77;2.57;;;20.10;99.90;;;;;;4889359;29;20243;-54
2022/06/24 01:17:41;;;;;;;3.50;2.43;;;20.10;99.90;;;;;;4888698;29;20863;-55
2022/06/24 01:20:10;;;;;;;3.27;2.90;;;20.10;99.90;;;;;;4887912;29;20247;-54
2022/06/24 01:22:41;;;;;;;2.90;2.60;;;20.10;99.90;;;;;;4888418;29;20819;-53
2022/06/24 01:25:11;;;;;;;3.77;2.90;;;20.00;99.90;;;;;;4889115;29;20279;-54
2022/06/24 01:27:39;;;;;;;3.47;2.80;;;20.00;99.90;;;;;;4888682;29;20235;-53
2022/06/24 01:30:11;;;;;;;4.07;2.67;;;20.00;99.90;;;;;;4887541;29;20251;-52
2022/06/24 01:32:39;;;;;;;2.87;2.57;;;20.00;99.90;;;;;;4888313;29;20243;-52
2022/06/24 01:35:12;;;;;;;3.57;2.90;;;20.00;99.90;;;;;;4889187;29;20256;-53
2022/06/24 01:37:42;;;;;;;2.60;2.40;;;19.90;99.90;;;;;;4888522;29;20243;-54
2022/06/24 01:40:11;;;;;;;4.63;2.60;;;19.90;99.90;;;;;;4887580;29;20264;-55
2022/06/24 01:42:40;;;;;;;2.50;2.30;;;19.80;99.90;;;;;;4888642;29;20239;-54
2022/06/24 01:45:08;;;;;;;5.77;2.80;;;19.80;99.90;;;;;;4889141;29;20279;-53
2022/06/24 01:47:37;;;;;;;2.80;2.60;;;19.80;99.90;;;;;;4888356;29;20244;-53
2022/06/24 01:50:06;;;;;;;2.90;2.70;;;19.80;99.90;;;;;;4886868;29;20721;-54
2022/06/24 01:52:34;;;;;;;2.90;2.60;;;19.80;99.90;;;;;;4888666;29;20608;-54
2022/06/24 01:55:05;;;;;;;2.90;2.57;;;19.70;99.90;;;;;;4889403;29;20742;-52
2022/06/24 01:57:33;;;;;;;4.13;2.73;;;19.70;99.90;;;;;;4888629;29;20308;-54
2022/06/24 02:02:35;;;;;;;3.23;2.93;;;19.70;99.90;;;;;;4887507;29;20324;-52
2022/06/24 02:05:12;;;;;;;2.90;2.60;;;19.60;99.90;;;;;;4888381;29;20249;-52
2022/06/24 02:07:40;;;;;;;2.50;2.30;;;19.60;99.90;;;;;;4887983;29;20256;-53
2022/06/24 02:15:47;;;;;;;19.40;2.87;;;19.60;99.90;;;;;;4892203;29;20276;-54
2022/06/24 02:18:15;;;;;;;4.13;2.60;;;19.50;99.90;;;;;;4890999;29;20297;-54
2022/06/24 02:20:44;;;;;;;2.47;2.30;;;19.50;99.90;;;;;;4891971;29;20245;-53
2022/06/24 02:23:13;;;;;;;2.90;2.70;;;19.50;99.90;;;;;;4891637;29;20327;-51
2022/06/24 02:25:42;;;;;;;5.57;2.57;;;19.40;99.90;;;;;;4892284;29;20240;-51
2022/06/24 02:28:10;;;;;;;2.50;2.20;;;19.40;99.90;;;;;;4890606;29;20251;-54
2022/06/24 02:30:39;;;;;;;3.00;2.70;;;19.40;99.90;;;;;;4891003;29;20221;-53
2022/06/24 02:33:08;;;;;;;3.10;2.80;;;19.40;99.90;;;;;;4891114;29;20251;-53
2022/06/24 02:35:37;;;;;;;4.27;2.50;;;19.40;99.90;;;;;;4891119;29;20238;-53
2022/06/24 02:38:05;;;;;;;3.80;2.50;;;19.30;99.90;;;;;;4890287;29;20730;-54
2022/06/24 02:40:48;;;;;;;3.20;2.90;;;19.30;99.90;;;;;;4891125;29;20331;-53
2022/06/24 02:43:19;;;;;;;4.83;2.80;;;19.20;99.90;;;;;;4891436;29;20237;-53
2022/06/24 02:45:49;;;;;;;3.03;2.70;;;19.20;99.90;;;;;;4891678;29;20715;-53
2022/06/24 02:48:19;;;;;;;3.47;2.37;;;19.20;99.90;;;;;;4904489;29;20239;-51
2022/06/24 02:50:49;;;;;;;3.37;3.07;;;19.20;99.90;;;;;;4890627;29;20237;-54
2022/06/24 02:53:18;;;;;;;5.00;2.67;;;19.20;99.90;;;;;;4891324;29;20239;-53
2022/06/24 02:55:49;;;;;;;3.13;2.80;;;19.20;99.90;;;;;;4891266;29;20235;-54
2022/06/24 02:58:18;;;;;;;2.80;2.60;;;19.10;99.90;;;;;;4889872;29;20362;-54
2022/06/24 03:00:47;;;;;;;3.90;2.80;;;19.10;99.90;;;;;;4891181;29;20239;-55
2022/06/24 03:03:18;;;;;;;3.03;2.73;;;19.10;99.90;;;;;;4891075;29;20638;-52
2022/06/24 03:05:46;;;;;;;2.60;2.40;;;19.00;99.90;;;;;;4891320;29;20751;-54
2022/06/24 03:08:17;;;;;;;3.37;2.70;;;19.10;99.90;;;;;;4890028;29;20742;-55
2022/06/24 03:10:45;;;;;;;3.80;2.77;;;19.10;99.90;;;;;;4890416;29;20231;-50
2022/06/24 03:13:13;;;;;;;2.80;2.60;;;19.10;99.90;;;;;;4890635;29;20294;-53
2022/06/24 03:15:45;;;;;;;2.93;2.73;;;19.10;99.90;;;;;;4892166;29;20695;-54
2022/06/24 03:18:13;;;;;;;4.23;3.00;;;19.10;99.90;;;;;;4891100;29;20890;-51
2022/06/24 03:20:42;;;;;;;4.40;3.10;;;19.10;99.90;;;;;;4891987;29;20257;-51
2022/06/24 03:23:13;;;;;;;3.80;3.00;;;19.10;99.90;;;;;;4891659;29;20253;-51
2022/06/24 03:25:42;;;;;;;4.37;2.87;;;19.10;99.90;;;;;;4891632;29;20231;-54
2022/06/24 03:28:11;;;;;;;2.97;2.73;;;19.10;99.90;;;;;;4890530;29;20244;-53
2022/06/24 03:30:39;;;;;;;3.33;2.70;;;19.10;99.90;;;;;;4890937;29;20226;-53
2022/06/24 03:33:09;;;;;;;3.30;2.63;;;19.10;99.90;;;;;;4891127;29;20735;-52
2022/06/24 03:35:37;;;;;;;2.87;2.67;;;19.20;99.90;;;;;;4891507;29;20232;-52
2022/06/24 03:38:05;;;;;;;2.80;2.60;;;19.30;99.90;;;;;;4890322;29;20300;-53
2022/06/24 03:40:33;;;;;;;6.33;2.80;;;19.30;99.90;;;;;;4891071;29;20257;-53
2022/06/24 03:43:02;;;;;;;3.20;2.73;;;19.40;99.90;;;;;;4891035;29;20247;-53
2022/06/24 03:45:30;;;;;;;3.93;3.00;;;19.40;99.90;;;;;;4891488;29;20243;-54
2022/06/24 03:47:58;;;;;;;4.77;3.20;;;19.40;99.90;;;;;;4890432;29;20788;-54
2022/06/24 03:50:27;;;;;;;3.47;3.17;;;19.40;99.90;;;;;;4888468;29;20240;-51
2022/06/24 03:52:55;;;;;;;4.47;2.90;;;19.40;99.90;;;;;;4890171;29;20802;-54
2022/06/24 03:55:23;;;;;;;3.23;2.80;;;19.50;99.90;;;;;;4890534;29;20227;-53
2022/06/24 03:57:52;;;;;;;5.63;2.93;;;19.50;99.90;;;;;;4890342;29;20711;-54
2022/06/24 04:00:20;;;;;;;3.03;2.73;;;19.50;99.90;;;;;;4889244;29;20243;-54
2022/06/24 04:02:48;;;;;;;3.40;2.77;;;19.60;99.90;;;;;;4889434;29;20298;-52
2022/06/24 04:05:16;;;;;;;3.33;2.83;;;19.70;99.90;;;;;;4889729;29;20236;-53
2022/06/24 04:07:46;;;;;;;5.40;3.03;;;19.70;99.90;;;;;;4889483;29;20252;-53
2022/06/24 04:10:14;;;;;;;3.50;3.20;;;19.70;99.90;;;;;;4887423;29;20244;-54
2022/06/24 04:12:42;;;;;;;4.60;3.40;;;19.80;99.90;;;;;;4889436;29;20429;-53
2022/06/24 04:15:18;;;;;;;4.27;3.17;;;19.90;99.90;;;;;;4889237;29;20227;-51
2022/06/24 04:17:48;;;;;;;3.57;3.00;;;19.90;99.90;;;;;;4889760;29;20698;-53
2022/06/24 04:20:18;;;;;;;4.17;3.13;;;19.90;99.90;;;;;;4888228;29;20266;-53
2022/06/24 04:22:49;;;;;;;3.40;3.10;;;20.00;99.90;;;;;;4890835;29;20235;-52
2022/06/24 04:25:18;;;;;;;4.70;3.30;;;20.10;99.90;;;;;;4890731;29;20803;-50
2022/06/24 04:27:46;;;;;;;3.20;2.90;;;20.10;99.90;;;;;;4889691;29;20687;-51
2022/06/24 04:30:14;;;;;;;4.83;3.43;;;20.30;99.90;;;;;;4887317;29;20295;-53
2022/06/24 04:32:43;;;;;;;3.97;3.33;;;20.30;99.90;;;;;;4890467;29;20240;-52
2022/06/24 04:35:11;;;;;;;3.80;2.60;;;20.40;99.90;;;;;;4890286;29;20244;-55
2022/06/24 04:37:40;;;;;;;5.10;3.03;;;20.40;99.90;;;;;;4895199;29;20255;-51
2022/06/24 04:40:12;;;;;;;4.17;2.80;;;20.40;99.90;;;;;;4892773;29;20782;-52
2022/06/24 04:42:40;;;;;;;5.53;3.10;;;20.50;99.90;;;;;;4894404;29;21473;-54
2022/06/24 04:45:09;;;;;;;4.80;2.90;;;20.70;99.90;;;;;;4894384;29;20287;-53
2022/06/24 04:47:37;;;;;;;4.47;3.00;;;20.70;99.90;;;;;;4894667;29;20727;-54
2022/06/24 04:50:06;;;;;;;3.73;3.30;;;20.80;99.90;;;;;;4893280;29;20282;-53
2022/06/24 04:52:35;;;;;;;4.63;3.10;;;20.90;99.90;;;;;;4893967;29;20241;-54
2022/06/24 04:55:03;;;;;;;4.10;3.20;;;20.90;99.90;;;;;;4891952;29;20299;-53
2022/06/24 04:57:33;;;;;;;5.93;3.27;;;21.00;99.90;;;;;;4894604;29;21095;-51
2022/06/24 05:00:01;;;;;;;4.33;3.13;;;21.10;99.90;;;;;;4891549;29;20251;-51
2022/06/24 05:02:29;;;;;;;4.47;3.40;;;21.10;99.90;;;;;;4891218;29;20249;-53
2022/06/24 05:04:58;;;;;;;3.97;3.00;;;21.20;99.90;;;;;;4890382;29;20240;-53
2022/06/24 05:07:26;;;;;;;4.27;3.00;;;21.30;99.90;;;;;;4889776;29;20248;-53
2022/06/24 05:09:54;;;;;;;3.30;3.00;;;21.40;99.90;;;;;;4888363;29;20269;-52
2022/06/24 05:12:23;;;;;;;3.40;3.10;;;21.40;99.90;;;;;;4890131;29;20225;-51
2022/06/24 05:14:52;;;;;;;4.80;3.50;;;21.40;99.90;;;;;;4889882;29;20244;-55
2022/06/24 05:17:23;;;;;;;3.80;2.97;;;21.60;99.90;;;;;;4890090;29;20240;-53
2022/06/24 05:19:52;;;;;;;4.50;3.00;;;21.70;99.90;;;;;;4888555;29;20324;-54
2022/06/24 05:22:20;;;;;;;3.20;2.90;;;21.90;99.90;;;;;;4889487;29;20236;-52
2022/06/24 05:24:48;;;;;;;4.33;3.43;;;22.00;99.90;;;;;;4888470;29;20248;-54
2022/06/24 05:27:16;;;;;;;3.43;2.90;;;22.10;99.90;;;;;;4888703;29;20700;-53
2022/06/24 05:29:45;;;;;;;3.93;3.17;;;22.40;99.90;;;;;;4887117;29;20242;-53
2022/06/24 05:32:14;;;;;;;3.43;2.97;;;22.40;99.90;;;;;;4888886;29;20245;-53
2022/06/24 05:34:42;;;;;;;7.87;3.27;;;22.50;99.90;;;;;;4889663;29;20236;-53
2022/06/24 05:37:10;;;;;;;3.97;3.20;;;22.60;99.90;;;;;;4890116;29;20237;-53
2022/06/24 05:39:38;;;;;;;3.73;2.77;;;22.80;99.90;;;;;;4888460;29;20301;-54
2022/06/24 05:42:07;;;;;;;4.63;3.20;;;22.90;99.90;;;;;;4890142;29;20248;-54
2022/06/24 05:44:36;;;;;;;6.47;3.10;;;23.10;99.90;;;;;;4888857;29;22511;-53
2022/06/24 05:47:04;;;;;;;3.80;3.03;;;23.30;99.90;;;;;;4892500;29;20291;-52
2022/06/24 05:49:34;;;;;;;3.87;2.80;;;23.40;99.90;;;;;;4889818;29;20270;-53
2022/06/24 05:52:02;;;;;;;7.33;3.10;;;23.60;99.90;;;;;;4892505;29;20729;-54
2022/06/24 05:57:16;;;;;;;4.23;3.00;;;24.00;99.90;;;;;;4893861;29;20229;-55
2022/06/24 05:59:44;;;;;;;6.27;3.00;;;24.00;99.90;;;;;;4892169;29;20255;-53
2022/06/24 06:02:12;;;;;;;6.83;3.10;;;24.00;99.90;;;;;;4893134;29;21127;-54
2022/06/24 06:04:42;;;;;;;12.40;3.67;;;24.10;99.90;;;;;;4892544;29;20246;-55
2022/06/24 06:07:10;;;;;;;5.10;3.20;;;24.10;99.90;;;;;;4891923;29;20902;-51
2022/06/24 06:09:38;;;;;;;5.10;3.20;;;24.20;99.90;;;;;;4890197;29;20237;-51
2022/06/24 06:12:07;;;;;;;3.97;3.10;;;24.30;99.90;;;;;;4892656;29;20241;-52
2022/06/24 06:14:35;;;;;;;3.77;3.10;;;24.40;99.90;;;;;;4891765;29;20261;-52
2022/06/24 06:17:03;;;;;;;4.03;2.97;;;24.50;99.90;;;;;;4891281;29;20670;-51
2022/06/24 06:19:33;;;;;;;7.33;3.20;;;24.70;99.90;;;;;;4890100;29;20244;-54
2022/06/24 06:22:04;;;;;;;3.77;3.10;;;25.00;99.90;;;;;;4891579;29;20243;-52
2022/06/24 06:24:32;;;;;;;3.87;3.30;;;25.30;99.90;;;;;;4891593;29;20250;-54
2022/06/24 06:27:00;;;;;;;3.87;3.10;;;25.50;99.90;;;;;;4890682;29;20239;-55
2022/06/24 06:29:28;;;;;;;5.47;3.30;;;25.40;99.90;;;;;;4890013;29;20285;-55
2022/06/24 06:31:56;;;;;;;5.07;2.50;;;25.50;99.90;;;;;;4891221;29;20238;-50
2022/06/24 06:34:25;;;;;;;3.23;2.93;;;25.70;99.90;;;;;;4895869;29;20737;-51
2022/06/24 06:36:53;;;;;;;4.87;3.20;;;25.60;99.90;;;;;;4898218;29;20235;-48
2022/06/24 06:39:22;;;;;;;5.17;3.10;;;25.80;99.90;;;;;;4898002;29;21001;-52
2022/06/24 06:41:50;;;;;;;4.00;3.17;;;26.00;99.90;;;;;;4897164;29;20315;-50
2022/06/24 06:44:19;;;;;;;7.23;3.17;;;26.20;99.90;;;;;;4897251;29;20223;-51
2022/06/24 06:46:47;;;;;;;4.53;2.90;;;26.00;99.90;;;;;;4894737;29;20705;-50
2022/06/24 06:49:15;;;;;;;5.67;2.83;;;26.20;99.90;;;;;;4894483;29;20265;-49
2022/06/24 06:51:44;;;;;;;4.83;3.30;;;26.40;99.90;;;;;;4892341;29;20272;-50
2022/06/24 06:54:12;;;;;;;4.30;3.03;;;26.50;99.90;;;;;;4895118;29;20255;-49
2022/06/24 06:56:42;;;;;;;4.97;3.30;;;26.60;99.90;;;;;;4898735;29;20315;-51
2022/06/24 06:59:10;;;;;;;4.97;3.27;;;26.70;99.90;;;;;;4895059;29;20314;-49
2022/06/24 07:01:38;;;;;;;4.13;3.10;;;26.90;99.90;;;;;;4899448;29;20227;-51
2022/06/24 07:04:07;;;;;;;5.43;2.93;;;27.10;99.90;;;;;;4896182;29;20244;-51
2022/06/24 07:06:35;;;;;;;4.37;3.07;;;27.30;99.90;;;;;;4896230;29;20244;-53
2022/06/24 07:09:04;;;;;;;4.77;3.17;;;27.50;99.90;;;;;;4896858;29;20259;-54
2022/06/24 07:11:32;;;;;;;4.43;3.40;;;27.50;99.90;;;;;;4897015;29;20738;-53
2022/06/24 07:14:01;;;;;;;5.00;3.20;;;27.70;99.90;;;;;;4897700;29;20254;-53
2022/06/24 07:16:29;;;;;;;4.93;3.10;;;27.70;99.90;;;;;;4896292;29;20709;-55
2022/06/24 07:18:58;;;;;;;5.30;3.07;;;27.60;99.90;;;;;;4895150;29;20244;-51
2022/06/24 07:21:26;;;;;;;4.30;3.30;;;27.60;99.90;;;;;;4892543;29;20260;-51
2022/06/24 07:23:54;;;;;;;3.50;3.17;;;27.60;99.90;;;;;;4896447;29;21383;-52
2022/06/24 07:26:22;;;;;;;6.03;3.63;;;27.70;99.90;;;;;;4894401;29;20240;-51
2022/06/24 07:28:50;;;;;;;4.70;3.10;;;27.90;99.90;;;;;;4891933;29;20248;-50
2022/06/24 07:31:21;;;;;;;3.80;3.37;;;28.40;99.90;;;;;;4894452;29;20729;-52
2022/06/24 07:33:49;;;;;;;3.30;3.00;;;28.60;99.90;;;;;;4891967;29;20232;-50
2022/06/24 07:36:17;;;;;;;3.63;3.13;;;28.70;99.90;;;;;;4891792;29;20751;-52
2022/06/24 07:38:45;;;;;;;6.00;3.33;;;28.60;99.90;;;;;;4890439;29;20704;-50
2022/06/24 07:41:14;;;;;;;3.67;3.17;;;28.80;99.90;;;;;;4891392;29;20247;-51
2022/06/24 07:43:42;;;;;;;3.80;3.40;;;29.00;99.90;;;;;;4890792;29;20225;-50
2022/06/24 07:46:11;;;;;;;3.77;3.40;;;29.40;99.90;;;;;;4891161;29;21110;-52
2022/06/24 07:48:41;;;;;;;3.53;3.13;;;29.50;99.90;;;;;;4890137;29;20702;-51
2022/06/24 07:51:10;;;;;;;3.97;3.17;;;29.80;99.90;;;;;;4890492;29;20244;-53
2022/06/24 07:53:39;;;;;;;5.27;3.10;;;30.00;99.90;;;;;;4891498;29;20336;-54
2022/06/24 07:58:53;;;;;;;3.93;3.33;;;29.90;99.90;;;;;;4888966;29;20248;-54
2022/06/24 08:01:21;;;;;;;3.57;3.23;;;30.10;99.90;;;;;;4889134;29;20237;-51
2022/06/24 08:03:51;;;;;;;5.47;3.30;;;30.40;99.90;;;;;;4889046;29;20300;-50
2022/06/24 08:06:19;;;;;;;4.20;3.10;;;30.70;99.80;;;;;;4890254;29;20227;-52
2022/06/24 08:08:47;;;;;;;3.20;3.00;;;30.80;99.90;;;;;;4889450;29;20635;-49
2022/06/24 08:11:15;;;;;;;3.63;3.30;;;31.00;99.90;;;;;;4891270;29;20232;-53
2022/06/24 08:13:44;;;;;;;4.53;3.20;;;31.30;99.20;;;;;;4890644;29;20363;-52
2022/06/24 08:16:12;;;;;;;5.07;3.17;;;31.20;98.50;;;;;;4890543;29;20719;-54
2022/06/24 08:18:40;;;;;;;5.57;3.10;;;31.40;98.60;;;;;;4889408;29;20236;-53
2022/06/24 08:21:10;;;;;;;4.70;3.13;;;31.40;98.50;;;;;;4883705;29;20695;-54
2022/06/24 08:23:38;;;;;;;3.47;3.13;;;31.40;97.80;;;;;;4880457;29;20241;-52
2022/06/24 08:26:06;;;;;;;4.03;3.20;;;31.70;98.70;;;;;;4880415;29;20238;-52
2022/06/24 08:28:34;;;;;;;3.80;3.33;;;31.80;98.20;;;;;;4877811;29;20252;-54
2022/06/24 08:31:03;;;;;;;3.63;3.27;;;31.90;97.00;;;;;;4881684;29;20229;-53
2022/06/24 08:33:32;;;;;;;3.23;2.97;;;31.40;96.80;;;;;;4881851;29;20814;-54
2022/06/24 08:36:00;;;;;;;4.77;3.30;;;31.70;98.10;;;;;;4883511;29;20562;-53
2022/06/24 08:38:30;;;;;;;4.37;3.23;;;32.00;97.20;;;;;;4882038;29;20814;-52
2022/06/24 08:41:02;;;;;;;4.57;3.60;;;32.60;97.90;;;;;;4882612;29;20309;-52
2022/06/24 08:43:32;;;;;;;5.13;3.60;;;32.60;96.40;;;;;;4879897;29;20668;-53
2022/06/24 08:46:00;;;;;;;5.03;3.40;;;32.50;96.20;;;;;;4880533;29;20813;-52
2022/06/24 08:48:38;;;;;;;5.20;3.40;;;32.70;96.80;;;;;;4879056;29;20629;-54
2022/06/24 08:51:07;;;;;;;4.40;3.33;;;32.50;95.90;;;;;;4879227;29;20615;-52
2022/06/24 08:53:38;;;;;;;5.10;3.37;;;32.70;96.20;;;;;;4882535;29;20237;-52
2022/06/24 08:56:07;;;;;;;4.13;3.40;;;32.70;95.50;;;;;;4890246;29;20239;-52
2022/06/24 08:58:36;;;;;;;6.10;3.40;;;32.50;95.30;;;;;;4888519;29;20285;-53
2022/06/24 09:01:14;;;;;;;6.13;3.20;;;32.20;95.90;;;;;;4890024;29;20245;-54
2022/06/24 09:03:46;;;;;;;8.87;3.17;;;32.50;96.10;;;;;;4888760;29;20248;-54
2022/06/24 09:06:15;;;;;;;5.23;3.40;;;32.80;96.20;;;;;;4889320;29;20256;-52
2022/06/24 09:08:49;;;;;;;8.40;3.73;;;32.90;95.80;;;;;;4887684;29;20235;-54
2022/06/24 09:11:18;;;;;;;3.77;3.20;;;33.20;95.10;;;;;;4881163;29;20963;-52
2022/06/24 09:13:48;;;;;;;5.00;3.17;;;33.50;95.50;;;;;;4879394;29;20243;-51
2022/06/24 09:16:18;;;;;;;4.27;3.20;;;33.20;94.60;;;;;;4881761;29;20240;-53
2022/06/24 09:18:54;;;;;;;4.13;3.20;;;33.20;94.80;;;;;;4880636;29;20238;-52
2022/06/24 09:21:24;;;;;;;4.53;3.10;;;33.30;94.80;;;;;;4881039;29;20671;-51
2022/06/24 09:23:56;;;;;;;4.10;3.03;;;33.40;95.10;;;;;;4881262;29;20566;-53
2022/06/24 09:26:33;;;;;;;8.93;3.13;;;33.30;94.40;;;;;;4881641;29;21028;-52
2022/06/24 09:29:03;;;;;;;6.43;3.10;;;33.40;95.20;;;;;;4878965;29;20244;-52
2022/06/24 09:31:32;;;;;;;4.23;3.20;;;33.80;94.20;;;;;;4877376;29;20295;-52
2022/06/24 09:34:09;;;;;;;5.87;3.13;;;34.00;94.30;;;;;;4878546;29;20742;-51
2022/06/24 09:36:39;;;;;;;5.37;2.80;;;34.00;94.30;;;;;;4879158;29;20238;-52
2022/06/24 09:39:11;;;;;;;3.87;2.67;;;34.20;94.40;;;;;;4877997;29;20252;-52
2022/06/24 09:41:49;;;;;;;9.57;3.00;;;34.40;94.40;;;;;;4876093;29;20326;-54
2022/06/24 09:44:19;;;;;;;4.60;2.80;;;34.40;93.50;;;;;;4878685;29;20248;-52
2022/06/24 09:46:48;;;;;;;3.93;2.80;;;34.40;93.00;;;;;;4878742;29;21765;-54
2022/06/24 09:49:18;;;;;;;6.47;3.07;;;34.30;93.80;;;;;;4879824;29;20588;-53
2022/06/24 09:51:46;;;;;;;3.83;3.47;;;34.40;92.90;;;;;;4878853;29;20237;-52
2022/06/24 09:54:16;;;;;;;4.23;3.10;;;34.40;93.40;;;;;;4880491;29;20240;-52
2022/06/24 09:56:45;;;;;;;4.93;2.87;;;34.40;93.40;;;;;;4877526;29;20265;-53
2022/06/24 10:02:05;;;;;;;5.07;3.40;;;35.10;93.30;;;;;;4880821;29;20300;-52
2022/06/24 10:04:37;;;;;;;7.17;3.47;;;34.90;92.40;;;;;;4888290;29;20231;-53
2022/06/24 10:07:06;;;;;;;5.47;2.70;;;34.90;93.10;;;;;;4888229;29;20230;-54
2022/06/24 10:09:37;;;;;;;7.10;3.07;;;35.20;93.20;;;;;;4886594;29;20240;-52
2022/06/24 10:12:06;;;;;;;4.10;2.97;;;35.10;92.40;;;;;;4889515;29;20638;-52
2022/06/24 10:14:34;;;;;;;5.00;2.97;;;35.10;92.50;;;;;;4889020;29;20717;-52
2022/06/24 10:17:03;;;;;;;5.77;3.20;;;35.30;92.70;;;;;;4889820;29;20233;-55
2022/06/24 10:19:32;;;;;;;4.17;2.80;;;35.30;92.50;;;;;;4888632;29;21012;-53
2022/06/24 10:22:00;;;;;;;5.33;2.80;;;35.40;92.20;;;;;;4889694;29;20742;-50
2022/06/24 10:24:42;;;;;;;4.70;3.17;;;35.70;92.00;;;;;;4888688;29;20281;-53
2022/06/24 10:27:10;;;;;;;7.77;3.30;;;35.60;92.70;;;;;;4889501;29;20624;-51
2022/06/24 10:29:38;;;;;;;5.07;3.33;;;35.60;91.90;;;;;;4887570;29;20815;-54
2022/06/24 10:32:10;;;;;;;5.60;3.17;;;35.50;92.10;;;;;;4889819;29;20332;-53
2022/06/24 10:34:42;;;;;;;5.30;3.03;;;35.60;92.20;;;;;;4891894;29;20221;-52
2022/06/24 10:37:28;;;;;;;3.97;2.80;;;35.80;92.30;;;;;;4892171;29;20233;-51
2022/06/24 10:39:59;;;;;;;5.57;2.90;;;35.80;91.70;;;;;;4888360;29;20250;-52
2022/06/24 10:42:30;;;;;;;4.70;2.87;;;35.70;91.70;;;;;;4882300;29;20312;-52
2022/06/24 10:45:03;;;;;;;6.60;3.27;;;35.20;91.00;;;;;;4882107;29;20241;-53
2022/06/24 10:47:42;;;;;;;6.00;3.20;;;35.10;91.50;;;;;;4883918;29;20302;-53
2022/06/24 10:50:21;;;;;;;6.53;3.00;;;35.30;92.00;;;;;;4881274;29;20229;-53
2022/06/24 10:53:00;;;;;;;2.70;2.50;;;35.30;91.90;;;;;;4883716;29;20488;-52
2022/06/24 10:55:36;;;;;;;3.60;2.90;;;35.40;91.90;;;;;;4883867;29;20329;-52
2022/06/24 10:58:08;;;;;;;6.93;3.10;;;35.40;91.20;;;;;;4881769;29;20309;-52
2022/06/24 11:00:53;;;;;;;6.30;2.60;;;35.40;91.70;;;;;;4883930;29;20310;-51
2022/06/24 11:03:38;;;;;;;4.67;2.80;;;35.70;91.50;;;;;;4889716;29;20801;-53
2022/06/24 11:06:09;;;;;;;6.13;3.00;;;36.10;91.20;;;;;;4889412;29;20233;-52
2022/06/24 11:08:38;;;;;;;5.77;3.10;;;36.30;91.10;;;;;;4881890;29;20594;-52
2022/06/24 11:11:09;;;;;;;5.47;2.60;;;36.40;90.50;;;;;;4879933;29;20815;-50
2022/06/24 11:13:37;;;;;;;4.97;2.70;;;36.50;90.90;;;;;;4883213;29;20247;-50
2022/06/24 11:16:05;;;;;;;6.20;2.77;;;36.60;91.10;;;;;;4884279;29;20241;-52
2022/06/24 11:18:35;;;;;;;5.37;2.80;;;36.40;90.30;;;;;;4883717;29;20238;-53
2022/06/24 11:21:05;;;;;;;6.13;3.13;;;36.30;90.90;;;;;;4882101;29;20336;-52
2022/06/24 11:23:34;;;;;;;5.03;2.83;;;36.40;90.50;;;;;;4883430;29;20976;-53
2022/06/24 11:26:04;;;;;;;3.33;3.00;;;36.60;89.60;;;;;;4883422;29;20274;-53
2022/06/24 11:28:35;;;;;;;6.03;3.17;;;37.00;88.90;;;;;;4885474;29;20277;-52
2022/06/24 11:31:19;;;;;;;4.43;3.10;;;36.90;88.80;;;;;;4890350;29;20244;-53
2022/06/24 11:33:51;;;;;;;4.00;3.00;;;36.80;88.90;;;;;;4890412;29;20341;-55
2022/06/24 11:36:21;;;;;;;5.67;3.47;;;36.70;88.50;;;;;;4890228;29;20325;-53
2022/06/24 11:38:51;;;;;;;7.40;3.67;;;36.40;89.40;;;;;;4887889;29;20594;-53
2022/06/24 11:41:26;;;;;;;8.27;3.27;;;35.60;90.00;;;;;;4889710;29;20642;-54
2022/06/24 11:44:16;;;;;;;4.80;2.97;;;35.20;90.80;;;;;;4889980;29;20229;-53
2022/06/24 11:46:50;;;;;;;4.43;3.10;;;34.60;90.40;;;;;;4890494;29;20320;-52
2022/06/24 11:49:21;;;;;;;4.20;3.10;;;34.30;91.50;;;;;;4888662;29;20295;-52
2022/06/24 11:51:50;;;;;;;4.93;3.67;;;34.60;91.30;;;;;;4890424;29;20237;-53
2022/06/24 11:54:19;;;;;;;5.43;3.27;;;34.20;91.00;;;;;;4891635;29;20717;-53
2022/06/24 11:56:48;;;;;;;18.20;4.43;;;33.80;91.70;;;;;;4889905;29;20889;-52
2022/06/24 11:59:21;;;;;;;18.77;5.40;;;32.60;92.80;;;;;;4888504;29;20303;-53
2022/06/24 12:01:51;;;;;;;13.10;5.23;;;30.80;96.90;;;;;;4889129;29;20292;-54
2022/06/24 12:04:23;;;;;;;16.70;5.47;;;29.90;99.30;;;;;;4890084;29;20902;-52
2022/06/24 12:07:02;;;;;;;11.23;5.63;;;29.10;99.90;;;;;;4889766;29;20243;-51
2022/06/24 12:09:30;;;;;;;10.33;5.73;;;28.70;99.90;;;;;;4887663;29;20879;-51
2022/06/24 12:12:09;;;;;;;11.80;5.63;;;28.60;99.90;;;;;;4890222;29;20239;-52
2022/06/24 12:14:39;;;;;;;8.80;5.47;;;28.60;99.90;;;;;;4890296;29;20706;-51
2022/06/24 12:17:08;;;;;;;8.10;4.47;;;28.40;99.90;;;;;;4889775;29;20222;-52
2022/06/24 12:19:40;;;;;;;7.10;4.40;;;28.40;99.90;;;;;;4889343;29;20781;-52
2022/06/24 12:22:10;;;;;;;6.47;4.13;;;28.60;99.90;;;;;;4888824;29;21151;-51
2022/06/24 12:24:40;;;;;;;6.27;4.03;;;28.70;99.90;;;;;;4889453;29;20836;-50
2022/06/24 12:27:10;;;;;;;4.67;4.17;;;28.90;99.90;;;;;;4888762;29;20296;-52
2022/06/24 12:29:41;;;;;;;4.90;4.20;;;29.30;99.90;;;;;;4887535;29;20233;-50
2022/06/24 12:32:15;;;;;;;6.83;4.67;;;29.50;99.90;;;;;;4888666;29;20590;-50
2022/06/24 12:34:54;;;;;;;6.83;4.63;;;29.70;99.90;;;;;;4889363;29;20253;-54
2022/06/24 12:37:22;;;;;;;8.00;5.37;;;29.60;99.90;;;;;;4889631;29;20319;-51
2022/06/24 12:39:53;;;;;;;7.07;4.73;;;29.60;99.90;;;;;;4887851;29;20245;-52
2022/06/24 12:42:25;;;;;;;5.87;5.10;;;29.80;99.90;;;;;;4889009;29;20232;-51
2022/06/24 12:44:59;;;;;;;6.47;5.00;;;30.30;99.90;;;;;;4888536;29;20278;-53
2022/06/24 12:53:02;;;;;;;7.97;4.37;;;30.70;99.90;;;;;;4888623;29;20237;-52
2022/06/24 12:55:32;;;;;;;5.33;3.77;;;30.60;99.90;;;;;;4888485;29;20259;-51
2022/06/24 12:58:00;;;;;;;8.33;4.20;;;30.60;99.90;;;;;;4887171;29;20756;-54
2022/06/24 13:00:30;;;;;;;6.27;4.13;;;30.70;99.90;;;;;;4888528;29;20246;-53
2022/06/24 13:02:59;;;;;;;4.90;3.90;;;30.60;99.90;;;;;;4888259;29;20254;-52
2022/06/24 13:05:28;;;;;;;6.53;4.17;;;30.60;99.90;;;;;;4888412;29;20925;-52
2022/06/24 13:07:57;;;;;;;4.00;3.47;;;30.70;99.90;;;;;;4887799;29;20638;-53
2022/06/24 13:10:25;;;;;;;5.23;3.70;;;30.90;99.90;;;;;;4887252;29;20336;-53
2022/06/24 13:12:53;;;;;;;5.00;3.80;;;31.00;99.90;;;;;;4887260;29;20758;-53
2022/06/24 13:15:22;;;;;;;5.87;3.70;;;31.00;99.90;;;;;;4888122;29;20232;-53
2022/06/24 13:17:52;;;;;;;5.67;3.80;;;31.00;99.90;;;;;;4888437;29;20246;-53
2022/06/24 13:20:20;;;;;;;4.27;3.50;;;31.00;99.90;;;;;;4887832;29;20820;-53
2022/06/24 13:22:49;;;;;;;4.00;3.60;;;31.00;99.90;;;;;;4889279;29;20242;-54